Time;durP1;ratioP1;P1;durP2;ratioP2;P2;SDS_P1;SDS_P2;PMS_P1;PMS_P2;Temp;Humidity;BMP_temperature;BMP_pressure;BME280_temperature;BME280_humidity;BME280_pressure;Samples;Min_cycle;Max_cycle;Signal;HPM_P1;HPM_P2
2022/01/20 00:02:17;;;;;;;6.75;2.28;;;;;;;;;;5113076;28;20475;-75
2022/01/20 00:05:06;;;;;;;7.35;2.10;;;;;;;;;;5112591;28;20445;-74
2022/01/20 00:08:00;;;;;;;6.47;2.25;;;;;;;;;;5111510;28;20031;-75
2022/01/20 00:26:57;;;;;;;6.75;2.45;;;;;;;;;;5112708;28;20030;-75
2022/01/20 00:29:28;;;;;;;5.15;2.05;;;;;;;;;;5112958;28;20031;-75
2022/01/20 00:32:07;;;;;;;9.68;2.20;;;;;;;;;;5094512;28;20023;-75
2022/01/20 00:37:23;;;;;;;4.93;1.98;;;;;;;;;;5080217;28;20095;-75
2022/01/20 00:39:49;;;;;;;7.82;2.33;;;;;;;;;;5112356;28;20479;-75
2022/01/20 00:42:16;;;;;;;5.63;2.35;;;;;;;;;;5112288;28;20479;-76
2022/01/20 00:44:43;;;;;;;6.40;2.00;;;;;;;;;;5111794;28;20035;-76
2022/01/20 00:47:09;;;;;;;5.15;1.80;;;;;;;;;;5112330;28;20379;-76
2022/01/20 00:49:35;;;;;;;4.28;1.88;;;;;;;;;;5111988;28;20035;-76
2022/01/20 00:52:01;;;;;;;4.18;1.70;;;;;;;;;;5111992;28;20391;-75
2022/01/20 00:54:27;;;;;;;7.15;2.33;;;;;;;;;;5111878;28;20498;-77
2022/01/20 00:56:53;;;;;;;6.45;1.80;;;;;;;;;;5112376;28;20031;-75
2022/01/20 00:59:19;;;;;;;8.38;2.15;;;;;;;;;;5093874;28;20023;-75
2022/01/20 01:01:46;;;;;;;4.82;2.00;;;;;;;;;;5093421;28;20024;-76
2022/01/20 01:04:12;;;;;;;5.75;1.83;;;;;;;;;;5111814;28;20081;-75
2022/01/20 01:06:58;;;;;;;6.90;2.10;;;;;;;;;;5111254;28;20039;-75
2022/01/20 01:09:24;;;;;;;6.60;2.10;;;;;;;;;;5112292;28;20023;-75
2022/01/20 01:11:52;;;;;;;5.70;1.92;;;;;;;;;;5111638;28;20093;-74
2022/01/20 01:14:20;;;;;;;4.65;2.20;;;;;;;;;;5111824;28;20019;-75
2022/01/20 01:22:13;;;;;;;6.75;1.77;;;;;;;;;;5111754;28;20069;-75
2022/01/20 01:24:41;;;;;;;7.30;2.33;;;;;;;;;;5111376;28;20032;-75
2022/01/20 01:27:07;;;;;;;6.90;2.13;;;;;;;;;;5111612;28;20020;-75
2022/01/20 01:32:14;;;;;;;6.15;1.80;;;;;;;;;;5111448;28;20036;-75
2022/01/20 01:34:46;;;;;;;6.03;1.67;;;;;;;;;;5111442;28;20023;-75
2022/01/20 01:39:57;;;;;;;5.65;1.42;;;;;;;;;;5111278;28;20123;-75
2022/01/20 01:42:29;;;;;;;4.95;1.58;;;;;;;;;;5093476;28;20077;-75
2022/01/20 01:44:57;;;;;;;5.80;2.22;;;;;;;;;;5111669;28;20032;-75
2022/01/20 01:47:23;;;;;;;4.38;1.70;;;;;;;;;;5111853;28;20024;-75
2022/01/20 01:49:49;;;;;;;7.68;1.92;;;;;;;;;;5092945;28;20536;-76
2022/01/20 01:52:15;;;;;;;4.97;1.73;;;;;;;;;;5111529;28;20027;-77
2022/01/20 01:54:41;;;;;;;5.45;1.50;;;;;;;;;;5111194;28;20073;-76
2022/01/20 01:57:09;;;;;;;4.43;1.50;;;;;;;;;;5111419;28;20484;-76
2022/01/20 01:59:36;;;;;;;7.47;2.28;;;;;;;;;;5111086;28;20400;-75
2022/01/20 02:02:03;;;;;;;5.82;1.95;;;;;;;;;;5111596;28;20020;-75
2022/01/20 02:04:29;;;;;;;4.78;1.35;;;;;;;;;;5114902;28;20032;-75
2022/01/20 02:17:56;;;;;;;6.25;1.88;;;;;;;;;;5114723;28;20071;-75
2022/01/20 02:20:22;;;;;;;4.15;1.50;;;;;;;;;;5115245;28;20483;-75
2022/01/20 02:22:50;;;;;;;4.65;1.52;;;;;;;;;;5114809;28;20476;-75
2022/01/20 02:25:19;;;;;;;6.70;1.58;;;;;;;;;;5114861;28;20042;-75
2022/01/20 02:27:45;;;;;;;4.75;1.48;;;;;;;;;;5114732;28;20081;-76
2022/01/20 02:30:11;;;;;;;5.20;1.73;;;;;;;;;;5114827;28;20096;-76
2022/01/20 02:32:37;;;;;;;7.43;1.67;;;;;;;;;;5114691;28;20047;-76
2022/01/20 02:35:07;;;;;;;4.93;1.55;;;;;;;;;;5114784;28;20062;-75
2022/01/20 02:37:33;;;;;;;5.50;1.60;;;;;;;;;;5095528;28;20148;-76
2022/01/20 02:40:29;;;;;;;5.38;1.17;;;;;;;;;;5114769;28;20506;-76
2022/01/20 02:45:32;;;;;;;3.78;1.27;;;;;;;;;;5099323;28;20046;-77
2022/01/20 02:47:58;;;;;;;4.60;1.38;;;;;;;;;;5114521;28;20019;-76
2022/01/20 02:50:24;;;;;;;5.05;1.70;;;;;;;;;;5114885;28;20042;-76
2022/01/20 02:52:50;;;;;;;4.43;1.48;;;;;;;;;;5095804;28;20023;-76
2022/01/20 02:55:16;;;;;;;3.85;1.35;;;;;;;;;;5096026;28;20031;-76
2022/01/20 02:57:42;;;;;;;3.03;1.20;;;;;;;;;;5095749;28;20031;-75
2022/01/20 03:00:09;;;;;;;3.83;1.20;;;;;;;;;;5114462;28;20463;-76
2022/01/20 03:02:35;;;;;;;5.28;1.63;;;;;;;;;;5114024;28;20023;-75
2022/01/20 03:05:01;;;;;;;4.07;1.33;;;;;;;;;;5114046;28;20043;-75
2022/01/20 03:07:27;;;;;;;4.32;1.55;;;;;;;;;;5114247;28;20110;-76
2022/01/20 03:09:53;;;;;;;4.70;1.17;;;;;;;;;;5114409;28;20035;-75
2022/01/20 03:12:19;;;;;;;3.80;1.13;;;;;;;;;;5114046;28;20080;-76
2022/01/20 03:14:45;;;;;;;4.95;1.73;;;;;;;;;;5112444;28;20110;-76
2022/01/20 03:17:13;;;;;;;4.07;1.38;;;;;;;;;;5113959;28;20020;-77
2022/01/20 03:19:39;;;;;;;4.22;1.40;;;;;;;;;;5113701;28;20050;-77
2022/01/20 03:22:05;;;;;;;3.60;1.35;;;;;;;;;;5113844;28;20028;-76
2022/01/20 03:24:31;;;;;;;5.60;1.65;;;;;;;;;;5113286;28;20050;-76
2022/01/20 03:26:57;;;;;;;4.80;1.90;;;;;;;;;;5113933;28;20057;-76
2022/01/20 03:29:23;;;;;;;5.38;1.38;;;;;;;;;;5113994;28;20382;-76
2022/01/20 03:31:49;;;;;;;5.40;1.25;;;;;;;;;;5095196;28;20110;-76
2022/01/20 03:34:15;;;;;;;5.25;1.50;;;;;;;;;;5113569;28;20032;-75
2022/01/20 03:36:41;;;;;;;4.30;1.48;;;;;;;;;;5112959;28;20027;-76
2022/01/20 03:39:07;;;;;;;5.40;1.45;;;;;;;;;;5113521;28;20027;-76
2022/01/20 03:41:33;;;;;;;4.95;1.50;;;;;;;;;;5113094;28;20027;-75
2022/01/20 03:44:00;;;;;;;4.20;1.15;;;;;;;;;;5094881;28;20040;-76
2022/01/20 03:46:26;;;;;;;5.07;1.60;;;;;;;;;;5113589;28;20023;-76
2022/01/20 03:48:54;;;;;;;4.25;1.30;;;;;;;;;;5095026;28;20023;-75
2022/01/20 03:51:24;;;;;;;5.32;1.25;;;;;;;;;;5113337;28;20023;-75
2022/01/20 03:53:51;;;;;;;4.18;1.23;;;;;;;;;;5113062;28;20072;-75
2022/01/20 03:56:21;;;;;;;6.50;1.40;;;;;;;;;;5113214;28;20024;-75
2022/01/20 03:58:47;;;;;;;5.40;1.50;;;;;;;;;;5094736;28;20032;-76
2022/01/20 04:01:14;;;;;;;4.82;1.80;;;;;;;;;;5113088;28;20469;-76
2022/01/20 04:03:41;;;;;;;4.30;1.50;;;;;;;;;;5112681;28;20024;-76
2022/01/20 04:06:07;;;;;;;4.30;1.35;;;;;;;;;;5112388;28;20568;-76
2022/01/20 04:08:35;;;;;;;4.50;1.73;;;;;;;;;;5112384;28;20093;-76
2022/01/20 04:11:02;;;;;;;3.13;1.23;;;;;;;;;;5094649;28;20015;-76
2022/01/20 04:13:30;;;;;;;5.22;1.30;;;;;;;;;;5112525;28;20036;-76
2022/01/20 04:15:59;;;;;;;4.68;1.60;;;;;;;;;;5094825;28;20544;-76
2022/01/20 04:18:26;;;;;;;3.33;1.30;;;;;;;;;;5113111;28;20028;-75
2022/01/20 04:20:53;;;;;;;3.50;1.10;;;;;;;;;;5113038;28;20026;-75
2022/01/20 04:23:19;;;;;;;4.93;1.45;;;;;;;;;;5094282;28;20041;-75
2022/01/20 04:25:45;;;;;;;4.07;1.35;;;;;;;;;;5111927;28;20038;-75
2022/01/20 04:28:11;;;;;;;6.25;1.30;;;;;;;;;;5094207;28;20068;-75
2022/01/20 04:30:37;;;;;;;4.13;1.05;;;;;;;;;;5093997;28;20119;-75
2022/01/20 04:33:03;;;;;;;3.85;1.23;;;;;;;;;;5112571;28;20103;-76
2022/01/20 04:35:29;;;;;;;4.47;1.20;;;;;;;;;;5111967;28;20059;-76
2022/01/20 04:37:57;;;;;;;3.20;1.17;;;;;;;;;;5112618;28;20146;-75
2022/01/20 04:40:23;;;;;;;3.55;1.52;;;;;;;;;;5112660;28;20495;-76
2022/01/20 04:42:50;;;;;;;4.20;1.40;;;;;;;;;;5112080;28;20611;-75
2022/01/20 04:45:24;;;;;;;4.25;1.10;;;;;;;;;;5111688;28;20031;-76
2022/01/20 04:48:01;;;;;;;2.58;0.90;;;;;;;;;;5111963;28;20356;-76
2022/01/20 04:58:43;;;;;;;3.08;1.27;;;;;;;;;;5111765;28;20035;-77
2022/01/20 05:01:10;;;;;;;3.13;1.15;;;;;;;;;;5112012;28;20027;-76
2022/01/20 05:03:36;;;;;;;5.20;1.30;;;;;;;;;;5111475;28;20483;-75
2022/01/20 05:06:02;;;;;;;4.22;1.15;;;;;;;;;;5111729;28;20027;-75
2022/01/20 05:08:30;;;;;;;4.22;1.30;;;;;;;;;;5111694;28;20020;-75
2022/01/20 05:11:00;;;;;;;4.05;1.30;;;;;;;;;;5112205;28;20099;-76
2022/01/20 05:13:33;;;;;;;3.60;1.17;;;;;;;;;;5093733;28;20020;-75
2022/01/20 05:16:00;;;;;;;3.10;1.17;;;;;;;;;;5093259;28;20023;-75
2022/01/20 05:18:26;;;;;;;5.18;1.40;;;;;;;;;;5112115;28;20016;-75
2022/01/20 05:20:52;;;;;;;3.55;1.10;;;;;;;;;;5111525;28;20045;-74
2022/01/20 05:23:18;;;;;;;4.28;1.63;;;;;;;;;;5111700;28;20047;-75
2022/01/20 05:25:44;;;;;;;4.40;1.30;;;;;;;;;;5111463;28;20109;-75
2022/01/20 05:28:10;;;;;;;4.15;1.30;;;;;;;;;;5111640;28;20023;-77
2022/01/20 05:30:38;;;;;;;3.38;1.30;;;;;;;;;;5111456;28;20080;-78
2022/01/20 05:33:04;;;;;;;4.57;1.50;;;;;;;;;;5111638;28;20011;-78
2022/01/20 05:35:31;;;;;;;4.35;1.50;;;;;;;;;;5111003;28;20035;-77
2022/01/20 05:37:57;;;;;;;4.05;1.42;;;;;;;;;;5113735;28;20027;-77
2022/01/20 05:40:23;;;;;;;4.10;1.23;;;;;;;;;;5116235;28;20024;-78
2022/01/20 05:42:49;;;;;;;5.28;1.10;;;;;;;;;;5115515;28;20016;-77
2022/01/20 05:45:15;;;;;;;4.07;1.30;;;;;;;;;;5115011;28;20126;-77
2022/01/20 05:47:45;;;;;;;2.60;0.90;;;;;;;;;;5115551;28;20027;-77
2022/01/20 05:50:12;;;;;;;6.00;1.70;;;;;;;;;;5115530;28;20042;-77
2022/01/20 05:52:41;;;;;;;4.28;1.23;;;;;;;;;;5115438;28;20027;-78
2022/01/20 05:55:08;;;;;;;3.75;1.40;;;;;;;;;;5115566;28;20027;-77
2022/01/20 05:57:35;;;;;;;5.47;1.55;;;;;;;;;;5115366;28;20024;-78
2022/01/20 06:00:02;;;;;;;3.47;1.70;;;;;;;;;;5115023;28;20053;-77
2022/01/20 06:03:36;;;;;;;3.65;1.35;;;;;;;;;;5114844;28;20027;-77
2022/01/20 06:05:13;;;;;;;5.60;1.85;;;;;;;;;;5113702;28;20074;-77
2022/01/20 06:07:39;;;;;;;4.60;1.13;;;;;;;;;;5115104;28;20058;-77
2022/01/20 06:10:05;;;;;;;5.85;1.35;;;;;;;;;;5115249;28;20107;-77
2022/01/20 06:12:31;;;;;;;4.57;1.33;;;;;;;;;;5114939;28;20020;-77
2022/01/20 06:14:57;;;;;;;4.30;1.00;;;;;;;;;;5115116;28;20130;-77
2022/01/20 06:17:27;;;;;;;6.32;1.45;;;;;;;;;;5115469;28;20058;-78
2022/01/20 06:19:53;;;;;;;5.05;1.42;;;;;;;;;;5115534;28;20016;-77
2022/01/20 06:22:19;;;;;;;5.13;1.77;;;;;;;;;;5115058;28;20020;-77
2022/01/20 06:24:45;;;;;;;5.45;1.30;;;;;;;;;;5114704;28;20113;-76
2022/01/20 06:27:11;;;;;;;5.38;1.30;;;;;;;;;;5115122;28;20032;-77
2022/01/20 06:29:37;;;;;;;3.05;1.15;;;;;;;;;;5114515;28;20497;-76
2022/01/20 06:32:04;;;;;;;3.22;1.05;;;;;;;;;;5114222;28;20069;-76
2022/01/20 06:34:30;;;;;;;6.60;1.42;;;;;;;;;;5114614;28;20023;-76
2022/01/20 06:36:56;;;;;;;6.72;1.50;;;;;;;;;;5115039;28;20023;-76
2022/01/20 06:39:22;;;;;;;2.83;1.00;;;;;;;;;;5114710;28;20035;-77
2022/01/20 06:41:48;;;;;;;3.33;1.33;;;;;;;;;;5114519;28;20035;-77
2022/01/20 06:44:14;;;;;;;4.30;1.20;;;;;;;;;;5114372;28;20043;-76
2022/01/20 06:46:40;;;;;;;11.40;1.90;;;;;;;;;;5096180;28;20022;-77
2022/01/20 06:49:06;;;;;;;4.00;1.30;;;;;;;;;;5096009;28;20028;-77
2022/01/20 06:51:33;;;;;;;6.07;1.52;;;;;;;;;;5114317;28;20026;-76
2022/01/20 06:53:59;;;;;;;7.13;1.33;;;;;;;;;;5114419;28;20094;-76
2022/01/20 06:56:25;;;;;;;4.78;1.38;;;;;;;;;;5096362;28;20020;-76
2022/01/20 06:58:51;;;;;;;6.45;2.28;;;;;;;;;;5113963;28;20383;-75
2022/01/20 07:01:18;;;;;;;8.80;1.70;;;;;;;;;;5095719;28;20019;-75
2022/01/20 07:03:44;;;;;;;5.35;1.27;;;;;;;;;;5113972;28;20484;-74
2022/01/20 07:06:10;;;;;;;2.67;0.82;;;;;;;;;;5114240;28;20492;-74
2022/01/20 07:08:36;;;;;;;7.95;1.40;;;;;;;;;;5113800;28;20020;-77
2022/01/20 07:11:02;;;;;;;4.85;1.60;;;;;;;;;;5116458;27;20027;-77
2022/01/20 07:13:28;;;;;;;4.00;1.08;;;;;;;;;;5115986;27;20023;-76
2022/01/20 07:15:54;;;;;;;5.03;1.60;;;;;;;;;;5134927;27;20038;-76
2022/01/20 07:18:20;;;;;;;3.40;1.10;;;;;;;;;;5116119;27;20023;-77
2022/01/20 07:20:46;;;;;;;4.07;1.30;;;;;;;;;;5115739;27;20027;-79
2022/01/20 07:23:12;;;;;;;5.07;1.35;;;;;;;;;;5134165;27;20076;-78
2022/01/20 07:25:38;;;;;;;5.90;1.55;;;;;;;;;;5115608;27;20037;-79
2022/01/20 07:28:04;;;;;;;5.63;1.83;;;;;;;;;;5134413;27;20482;-78
2022/01/20 07:30:30;;;;;;;4.65;1.48;;;;;;;;;;5125371;27;20384;-79
2022/01/20 07:32:58;;;;;;;6.38;1.40;;;;;;;;;;5114112;28;20020;-79
2022/01/20 07:35:24;;;;;;;3.97;1.08;;;;;;;;;;5095735;28;20475;-74
2022/01/20 07:37:50;;;;;;;5.03;1.40;;;;;;;;;;5113247;28;20065;-77
2022/01/20 07:40:16;;;;;;;4.15;1.58;;;;;;;;;;5112690;28;20027;-76
2022/01/20 07:42:42;;;;;;;3.80;1.27;;;;;;;;;;5113306;28;20027;-76
2022/01/20 07:45:08;;;;;;;4.70;1.70;;;;;;;;;;5113152;28;20119;-76
2022/01/20 07:47:35;;;;;;;6.10;1.55;;;;;;;;;;5113264;28;20559;-76
2022/01/20 07:50:01;;;;;;;7.35;1.63;;;;;;;;;;5113408;28;20035;-76
2022/01/20 07:52:27;;;;;;;6.10;1.45;;;;;;;;;;5113302;28;20020;-77
2022/01/20 07:54:53;;;;;;;4.75;1.58;;;;;;;;;;5114874;28;20031;-75
2022/01/20 07:57:19;;;;;;;6.80;2.17;;;;;;;;;;5094851;28;20030;-78
2022/01/20 07:59:45;;;;;;;12.20;3.30;;;;;;;;;;5111983;28;20038;-77
2022/01/20 08:02:11;;;;;;;6.35;3.70;;;;;;;;;;5112960;28;20136;-77
2022/01/20 08:04:37;;;;;;;7.88;4.40;;;;;;;;;;5112410;28;20035;-77
2022/01/20 08:07:03;;;;;;;5.65;3.80;;;;;;;;;;5094549;28;20514;-78
2022/01/20 08:09:29;;;;;;;11.38;4.80;;;;;;;;;;5112624;28;20024;-76
2022/01/20 08:11:55;;;;;;;7.75;3.88;;;;;;;;;;5113233;28;20020;-77
2022/01/20 08:14:21;;;;;;;14.98;4.47;;;;;;;;;;5094528;28;20028;-76
2022/01/20 08:16:47;;;;;;;7.60;3.88;;;;;;;;;;5094314;28;20480;-76
2022/01/20 08:19:13;;;;;;;12.35;4.45;;;;;;;;;;5112734;28;20051;-79
2022/01/20 08:21:39;;;;;;;11.18;4.10;;;;;;;;;;5112399;28;20447;-78
2022/01/20 08:24:05;;;;;;;10.30;3.80;;;;;;;;;;5112468;28;20043;-76
2022/01/20 08:26:31;;;;;;;14.18;4.75;;;;;;;;;;5110018;28;20027;-76
2022/01/20 08:28:57;;;;;;;8.85;3.63;;;;;;;;;;5111880;28;20032;-76
2022/01/20 08:31:24;;;;;;;9.60;3.95;;;;;;;;;;5094245;28;20027;-79
2022/01/20 08:33:50;;;;;;;8.05;3.17;;;;;;;;;;5112237;28;20047;-77
2022/01/20 08:36:16;;;;;;;8.30;3.13;;;;;;;;;;5112449;28;20081;-78
2022/01/20 08:38:43;;;;;;;8.07;3.20;;;;;;;;;;5111729;28;20415;-78
2022/01/20 08:41:09;;;;;;;10.10;3.28;;;;;;;;;;5112319;28;20027;-78
2022/01/20 08:43:38;;;;;;;13.98;3.35;;;;;;;;;;5111763;28;20440;-77
2022/01/20 08:46:07;;;;;;;8.15;3.60;;;;;;;;;;5112388;28;20034;-77
2022/01/20 08:48:33;;;;;;;7.55;2.95;;;;;;;;;;5111794;28;20027;-77
2022/01/20 08:50:59;;;;;;;6.43;2.85;;;;;;;;;;5112145;28;20027;-76
2022/01/20 08:53:26;;;;;;;9.90;2.92;;;;;;;;;;5112370;28;20424;-77
2022/01/20 08:55:52;;;;;;;5.65;2.45;;;;;;;;;;5112015;28;20027;-77
2022/01/20 08:58:18;;;;;;;14.32;3.25;;;;;;;;;;5112029;28;20022;-77
2022/01/20 09:00:44;;;;;;;6.15;2.60;;;;;;;;;;5111269;28;20106;-78
2022/01/20 09:03:10;;;;;;;11.50;2.70;;;;;;;;;;5093083;28;20070;-78
2022/01/20 09:05:36;;;;;;;5.75;2.42;;;;;;;;;;5093638;28;20036;-77
2022/01/20 09:08:02;;;;;;;8.80;2.63;;;;;;;;;;5111963;28;20016;-78
2022/01/20 09:10:36;;;;;;;5.57;2.08;;;;;;;;;;5111507;28;20058;-78
2022/01/20 09:15:54;;;;;;;9.23;2.80;;;;;;;;;;5083062;28;20020;-79
2022/01/20 09:18:22;;;;;;;5.20;2.35;;;;;;;;;;5111684;28;20027;-79
2022/01/20 09:20:48;;;;;;;7.05;2.17;;;;;;;;;;5111422;28;20027;-78
2022/01/20 09:23:15;;;;;;;6.55;2.30;;;;;;;;;;5111584;28;20387;-76
2022/01/20 09:25:42;;;;;;;7.80;2.88;;;;;;;;;;5111409;28;20038;-77
2022/01/20 09:28:08;;;;;;;6.97;2.47;;;;;;;;;;5111579;28;20032;-76
2022/01/20 09:30:36;;;;;;;5.93;2.13;;;;;;;;;;5110935;28;20450;-77
2022/01/20 09:33:13;;;;;;;6.07;2.13;;;;;;;;;;5110439;28;20019;-75
2022/01/20 09:35:40;;;;;;;5.70;2.65;;;;;;;;;;5092877;28;20028;-79
2022/01/20 09:38:06;;;;;;;4.07;1.90;;;;;;;;;;5111564;28;20573;-76
2022/01/20 09:40:33;;;;;;;8.95;2.17;;;;;;;;;;5111188;28;20034;-78
2022/01/20 09:43:00;;;;;;;7.35;2.10;;;;;;;;;;5111571;28;20023;-78
2022/01/20 09:45:26;;;;;;;8.25;2.20;;;;;;;;;;5111481;28;20392;-79
2022/01/20 09:47:52;;;;;;;5.53;2.03;;;;;;;;;;5111235;28;20092;-79
2022/01/20 09:50:20;;;;;;;5.20;1.75;;;;;;;;;;5111453;28;20035;-78
2022/01/20 09:52:49;;;;;;;6.35;2.17;;;;;;;;;;5092861;28;20356;-78
2022/01/20 09:55:15;;;;;;;4.75;1.70;;;;;;;;;;5111322;28;20031;-77
2022/01/20 09:57:42;;;;;;;4.38;1.45;;;;;;;;;;5092845;28;20023;-78
2022/01/20 10:00:10;;;;;;;8.20;2.15;;;;;;;;;;5110714;28;20072;-78
2022/01/20 10:02:36;;;;;;;4.57;1.88;;;;;;;;;;5109484;28;20500;-78
2022/01/20 10:05:03;;;;;;;4.07;1.65;;;;;;;;;;5111226;28;20035;-79
2022/01/20 10:07:33;;;;;;;4.30;1.40;;;;;;;;;;5110799;28;20475;-78
2022/01/20 10:10:00;;;;;;;7.95;2.47;;;;;;;;;;5111386;28;20031;-79
2022/01/20 10:12:31;;;;;;;6.07;2.38;;;;;;;;;;5093238;28;20098;-79
2022/01/20 10:14:58;;;;;;;5.22;1.70;;;;;;;;;;5111119;28;20423;-79
2022/01/20 10:17:29;;;;;;;5.75;1.85;;;;;;;;;;5111188;28;20024;-77
2022/01/20 10:20:01;;;;;;;5.47;1.58;;;;;;;;;;5103243;28;20521;-77
2022/01/20 10:22:27;;;;;;;5.38;1.50;;;;;;;;;;5095394;28;20054;-77
2022/01/20 10:25:26;;;;;;;6.85;1.98;;;;;;;;;;5114448;28;20040;-78
2022/01/20 10:27:53;;;;;;;6.15;1.92;;;;;;;;;;5068298;27;20105;-79
2022/01/20 10:30:20;;;;;;;4.18;1.35;;;;;;;;;;5096868;28;20023;-79
2022/01/20 10:32:51;;;;;;;4.82;1.77;;;;;;;;;;5114267;28;20020;-78
2022/01/20 10:35:18;;;;;;;4.68;1.63;;;;;;;;;;5113047;28;20455;-79
2022/01/20 10:38:15;;;;;;;6.40;1.30;;;;;;;;;;5112776;28;20023;-79
2022/01/20 10:40:41;;;;;;;;;;;;;;;;;;5094361;28;20097;-78
2022/01/20 10:43:07;;;;;;;7.18;1.75;;;;;;;;;;5113685;28;19908;-78
2022/01/20 10:45:33;;;;;;;6.07;2.05;;;;;;;;;;5114128;28;20143;-79
2022/01/20 10:48:00;;;;;;;5.38;1.40;;;;;;;;;;5114534;28;20042;-77
2022/01/20 10:50:30;;;;;;;5.78;1.40;;;;;;;;;;5114703;28;20054;-79
2022/01/20 10:52:57;;;;;;;5.05;1.65;;;;;;;;;;5114000;28;20016;-79
2022/01/20 10:55:34;;;;;;;7.85;2.78;;;;;;;;;;5114726;28;20023;-79
2022/01/20 10:58:17;;;;;;;4.53;1.55;;;;;;;;;;5113568;28;20055;-79
2022/01/20 11:00:48;;;;;;;5.72;1.77;;;;;;;;;;5113731;28;20031;-79
2022/01/20 11:03:14;;;;;;;3.42;1.30;;;;;;;;;;5114236;28;20066;-80
2022/01/20 11:05:44;;;;;;;4.13;1.42;;;;;;;;;;5113582;28;20079;-79
2022/01/20 11:08:10;;;;;;;4.15;1.50;;;;;;;;;;5113737;28;20012;-78
2022/01/20 11:10:39;;;;;;;3.85;1.50;;;;;;;;;;5113189;28;20080;-78
2022/01/20 11:13:05;;;;;;;6.30;1.58;;;;;;;;;;5113988;27;20066;-78
2022/01/20 11:15:31;;;;;;;4.57;1.40;;;;;;;;;;5119313;27;20035;-77
2022/01/20 11:17:58;;;;;;;3.22;1.05;;;;;;;;;;5112712;28;20031;-77
2022/01/20 11:20:27;;;;;;;4.75;1.45;;;;;;;;;;5113182;28;20487;-76
2022/01/20 11:23:07;;;;;;;4.72;1.40;;;;;;;;;;5114333;28;20031;-78
2022/01/20 11:25:35;;;;;;;5.45;1.40;;;;;;;;;;5113539;28;20510;-77
2022/01/20 11:28:09;;;;;;;5.05;1.92;;;;;;;;;;5113780;28;20026;-77
2022/01/20 11:30:39;;;;;;;2.97;1.00;;;;;;;;;;5095098;28;20126;-77
2022/01/20 11:33:07;;;;;;;4.28;1.27;;;;;;;;;;5113703;28;20529;-77
2022/01/20 11:35:56;;;;;;;6.47;1.73;;;;;;;;;;5112287;28;20072;-76
2022/01/20 11:38:24;;;;;;;5.43;1.65;;;;;;;;;;5095071;28;20067;-75
2022/01/20 11:40:52;;;;;;;3.67;1.38;;;;;;;;;;5094999;28;20051;-76
2022/01/20 11:43:18;;;;;;;2.40;0.95;;;;;;;;;;5113339;28;20027;-78
2022/01/20 11:45:47;;;;;;;3.97;1.38;;;;;;;;;;5112793;28;20032;-78
2022/01/20 11:48:16;;;;;;;4.13;1.23;;;;;;;;;;5113230;28;20380;-78
2022/01/20 11:50:43;;;;;;;4.53;1.42;;;;;;;;;;5112612;28;20103;-78
2022/01/20 11:53:13;;;;;;;3.20;1.20;;;;;;;;;;5112967;28;20032;-79
2022/01/20 11:55:43;;;;;;;5.25;1.42;;;;;;;;;;5112976;28;20027;-85
2022/01/20 11:58:10;;;;;;;6.35;1.50;;;;;;;;;;5113176;28;20020;-79
2022/01/20 12:00:36;;;;;;;3.60;1.10;;;;;;;;;;5111263;28;20028;-79
2022/01/20 12:03:09;;;;;;;3.67;1.40;;;;;;;;;;5111706;28;20042;-78
2022/01/20 12:05:35;;;;;;;4.63;1.25;;;;;;;;;;5110884;28;20413;-78
2022/01/20 12:08:14;;;;;;;3.90;1.17;;;;;;;;;;5108510;28;20024;-78
2022/01/20 12:10:41;;;;;;;4.97;0.82;;;;;;;;;;5092711;28;20060;-78
2022/01/20 12:13:11;;;;;;;5.38;1.20;;;;;;;;;;5111304;28;20016;-76
2022/01/20 12:15:47;;;;;;;4.00;1.10;;;;;;;;;;5111963;28;20019;-79
2022/01/20 12:18:14;;;;;;;3.97;0.75;;;;;;;;;;5112826;28;20471;-77
2022/01/20 12:20:40;;;;;;;5.68;1.17;;;;;;;;;;5111087;28;20091;-78
2022/01/20 12:23:06;;;;;;;4.05;1.15;;;;;;;;;;5111915;28;20027;-77
2022/01/20 12:25:33;;;;;;;5.88;0.98;;;;;;;;;;5111302;28;20402;-77
2022/01/20 12:28:06;;;;;;;4.35;0.90;;;;;;;;;;5111334;28;20087;-77
2022/01/20 12:30:33;;;;;;;3.72;1.27;;;;;;;;;;5110657;28;20015;-76
2022/01/20 12:33:14;;;;;;;5.35;0.98;;;;;;;;;;5110911;28;20023;-76
2022/01/20 12:35:44;;;;;;;5.82;0.95;;;;;;;;;;5092427;28;20147;-76
2022/01/20 12:38:18;;;;;;;5.25;1.27;;;;;;;;;;5110994;28;20477;-75
2022/01/20 12:40:47;;;;;;;6.68;1.00;;;;;;;;;;5108645;28;20028;-76
2022/01/20 12:43:13;;;;;;;3.63;1.50;;;;;;;;;;5110800;28;20591;-76
2022/01/20 12:45:55;;;;;;;3.92;0.95;;;;;;;;;;5110510;28;20019;-76
2022/01/20 12:48:21;;;;;;;3.75;1.02;;;;;;;;;;5092749;28;20019;-76
2022/01/20 12:51:07;;;;;;;6.50;1.08;;;;;;;;;;5110564;28;20023;-77
2022/01/20 12:53:33;;;;;;;3.47;1.00;;;;;;;;;;5109260;28;20416;-77
2022/01/20 12:55:59;;;;;;;3.92;1.63;;;;;;;;;;5110673;28;20546;-76
2022/01/20 12:58:25;;;;;;;3.65;0.95;;;;;;;;;;5110926;28;20055;-76
2022/01/20 13:01:01;;;;;;;6.00;1.15;;;;;;;;;;5110756;28;20027;-77
2022/01/20 13:03:34;;;;;;;6.88;1.00;;;;;;;;;;5110698;28;20103;-77
2022/01/20 13:06:00;;;;;;;7.47;1.33;;;;;;;;;;5111378;28;20093;-77
2022/01/20 13:08:32;;;;;;;6.63;0.90;;;;;;;;;;5112050;28;20023;-77
2022/01/20 13:11:13;;;;;;;3.83;1.02;;;;;;;;;;5110924;28;20115;-77
2022/01/20 13:13:39;;;;;;;3.08;0.80;;;;;;;;;;5111120;28;20102;-77
2022/01/20 13:16:12;;;;;;;3.78;1.15;;;;;;;;;;5111419;28;20487;-76
2022/01/20 13:18:38;;;;;;;3.63;1.23;;;;;;;;;;5111459;28;20023;-76
2022/01/20 13:21:07;;;;;;;3.67;0.95;;;;;;;;;;5093452;28;20503;-77
2022/01/20 13:23:55;;;;;;;3.33;1.00;;;;;;;;;;5110452;28;20429;-77
2022/01/20 13:26:21;;;;;;;5.32;1.10;;;;;;;;;;5110569;28;20028;-76
2022/01/20 13:29:07;;;;;;;2.67;1.05;;;;;;;;;;5111324;28;20386;-76
2022/01/20 13:31:33;;;;;;;4.00;1.10;;;;;;;;;;5111527;28;20027;-76
2022/01/20 13:34:06;;;;;;;3.03;0.88;;;;;;;;;;5111570;28;20106;-76
2022/01/20 13:36:42;;;;;;;3.35;0.90;;;;;;;;;;5111072;28;20090;-76
2022/01/20 13:39:08;;;;;;;4.60;0.95;;;;;;;;;;5111617;28;20028;-76
2022/01/20 13:41:34;;;;;;;5.68;1.02;;;;;;;;;;5111354;28;20399;-77
2022/01/20 13:46:47;;;;;;;3.50;1.00;;;;;;;;;;5111283;28;20070;-76
2022/01/20 13:49:15;;;;;;;3.70;1.10;;;;;;;;;;5111605;28;20433;-76
2022/01/20 13:51:41;;;;;;;4.43;0.90;;;;;;;;;;5111461;28;20024;-77
2022/01/20 13:54:08;;;;;;;3.65;0.93;;;;;;;;;;5111568;28;20038;-76
2022/01/20 13:56:34;;;;;;;3.13;1.10;;;;;;;;;;5110665;28;20032;-77
2022/01/20 13:59:07;;;;;;;4.40;0.90;;;;;;;;;;5113230;28;20502;-76
2022/01/20 14:01:34;;;;;;;2.13;0.82;;;;;;;;;;5097167;28;20023;-77
2022/01/20 14:04:00;;;;;;;4.53;1.20;;;;;;;;;;5115473;28;20031;-76
2022/01/20 14:06:26;;;;;;;3.67;0.88;;;;;;;;;;5115299;28;20053;-76
2022/01/20 14:08:53;;;;;;;4.10;1.02;;;;;;;;;;5114886;28;20030;-77
2022/01/20 14:11:19;;;;;;;2.83;0.90;;;;;;;;;;5115296;28;20031;-76
2022/01/20 14:13:45;;;;;;;3.50;0.93;;;;;;;;;;5096888;28;20445;-76
2022/01/20 14:16:11;;;;;;;2.97;1.13;;;;;;;;;;5114921;28;20020;-76
2022/01/20 14:18:43;;;;;;;3.72;1.10;;;;;;;;;;5114282;28;20082;-76
2022/01/20 14:21:10;;;;;;;4.50;1.20;;;;;;;;;;5096644;28;20532;-77
2022/01/20 14:23:36;;;;;;;4.63;0.90;;;;;;;;;;5114125;28;20465;-77
2022/01/20 14:26:02;;;;;;;1.75;0.90;;;;;;;;;;5114986;28;20103;-76
2022/01/20 14:28:28;;;;;;;3.95;1.42;;;;;;;;;;5114355;28;20023;-77
2022/01/20 14:30:54;;;;;;;4.63;0.80;;;;;;;;;;5115183;28;20028;-76
2022/01/20 14:33:20;;;;;;;4.30;1.20;;;;;;;;;;5114866;28;20111;-77
2022/01/20 14:35:46;;;;;;;2.30;0.85;;;;;;;;;;5114616;28;20055;-76
2022/01/20 14:38:12;;;;;;;3.45;0.80;;;;;;;;;;5113894;28;20114;-76
2022/01/20 14:40:38;;;;;;;3.15;1.00;;;;;;;;;;5114252;28;20066;-76
2022/01/20 14:43:04;;;;;;;2.80;0.90;;;;;;;;;;5114756;28;20471;-77
2022/01/20 14:45:30;;;;;;;2.15;0.90;;;;;;;;;;5114260;28;20414;-76
2022/01/20 14:47:56;;;;;;;3.60;1.10;;;;;;;;;;5114886;28;20027;-76
2022/01/20 14:50:24;;;;;;;4.35;1.40;;;;;;;;;;5114245;28;20028;-76
2022/01/20 14:52:50;;;;;;;2.42;0.73;;;;;;;;;;5113639;28;20403;-77
2022/01/20 14:55:17;;;;;;;4.28;0.93;;;;;;;;;;5114337;28;20024;-76
2022/01/20 14:57:43;;;;;;;3.78;1.05;;;;;;;;;;5114082;28;20555;-76
2022/01/20 15:00:10;;;;;;;3.83;0.82;;;;;;;;;;5114171;28;20098;-76
2022/01/20 15:02:36;;;;;;;4.20;1.17;;;;;;;;;;5113935;28;20052;-77
2022/01/20 15:05:03;;;;;;;2.42;0.85;;;;;;;;;;5114224;28;20036;-76
2022/01/20 15:07:29;;;;;;;4.55;0.90;;;;;;;;;;5094384;28;20058;-76
2022/01/20 15:09:55;;;;;;;3.75;0.98;;;;;;;;;;5113824;28;20031;-77
2022/01/20 15:12:22;;;;;;;4.97;1.20;;;;;;;;;;5113445;28;20552;-76
2022/01/20 15:14:48;;;;;;;2.58;0.75;;;;;;;;;;5113336;28;20038;-76
2022/01/20 15:17:14;;;;;;;3.38;0.93;;;;;;;;;;5113872;28;20419;-76
2022/01/20 15:19:40;;;;;;;3.13;1.00;;;;;;;;;;5113644;28;20026;-77
2022/01/20 15:22:06;;;;;;;4.38;0.85;;;;;;;;;;5113916;28;20027;-76
2022/01/20 15:24:35;;;;;;;2.97;1.25;;;;;;;;;;5113534;28;20023;-76
2022/01/20 15:27:01;;;;;;;3.78;1.20;;;;;;;;;;5113887;28;20030;-77
2022/01/20 15:29:27;;;;;;;2.38;0.73;;;;;;;;;;5111957;28;20031;-77
2022/01/20 15:31:53;;;;;;;3.35;0.90;;;;;;;;;;5112423;28;20391;-76
2022/01/20 15:34:19;;;;;;;3.08;0.80;;;;;;;;;;5112012;28;20028;-77
2022/01/20 15:36:46;;;;;;;3.17;1.02;;;;;;;;;;5112857;28;20035;-76
2022/01/20 15:39:13;;;;;;;4.47;1.13;;;;;;;;;;5113561;28;20395;-76
2022/01/20 15:41:39;;;;;;;3.30;1.08;;;;;;;;;;5113310;28;20023;-76
2022/01/20 15:44:05;;;;;;;3.75;0.73;;;;;;;;;;5113136;28;20039;-77
2022/01/20 15:46:38;;;;;;;3.15;1.20;;;;;;;;;;5113211;28;20065;-76